• Join FlightAware (Why Join?)
  • Login
  • US Flag 
06:34AM EST


 

Airport Tracker/Info


-or-


 

Live Flight TrackerFlight Track Log ✈ BOE6 ✈ 08-Dec-2011 ✈ VGHS / DAC - KBFI

Flight Track Log - Related Links

Times and Time Zones

All times are in EST time to prevent confusion due to time zone crossing. See the BOE6 flight status page for this flight to view local times or setup timezone preferences in your user account.

Time Position Orientation Groundspeed Altitude Reporting Facility
EST Latitude Longitude Course Direction KTS MPH feet Rate Location/Type
09:06PM -19.8859 -159.9016 296° West  Level FlightAware Approximate
09:14PM -18.8221 -159.3727 295° West  Level FlightAware Approximate
09:21PM 13.6333 142.6333 90° East 490 564 41,000  Level Guam Center
09:22PM 13.6333 142.7667 97° East 490 564 41,000  Level Guam Center
09:23PM 13.6167 142.9167 97° East 490 564 41,000  Level Guam Center
09:24PM 13.6000 143.0500 90° East 490 564 41,000  Level Guam Center
09:25PM 13.6000 143.1833 97° East 490 564 41,000  Level Guam Center
09:26PM 13.5833 143.3333 97° East 490 564 41,000  Level Guam Center
09:27PM 13.5667 143.4667 97° East 490 564 41,000  Level Guam Center
09:28PM 13.5500 143.6167 97° East 500 575 41,000  Level Guam Center
09:29PM 13.5333 143.7667 97° East 480 552 41,000  Level Guam Center
09:30PM 13.5167 143.9167 90° East 490 564 41,000  Level Guam Center
09:31PM 13.5167 144.0500 97° East 490 564 41,000  Level Guam Center
09:32PM 13.5000 144.2000 97° East 500 575 41,000  Level Guam Center
09:33PM 13.4833 144.3333 97° East 490 564 41,000  Level Guam Center
09:34PM 13.4667 144.4833 97° East 490 564 41,000  Level Guam Center
09:35PM 13.4500 144.6167 97° East 490 564 41,000  Level Guam Center
09:36PM 13.4333 144.7500 67° East 490 564 41,000  Level Guam Center
09:39PM 13.5667 145.0667 69° East 410 472 41,000  Level Guam Center
09:40PM 13.6167 145.2000 66° East 470 541 41,000  Level Guam Center
09:41PM 13.6667 145.3167 76° East 470 541 41,000  Level Guam Center
09:42PM 13.7000 145.4500 69° East 480 552 41,000  Level Guam Center
09:43PM 13.7500 145.5833 66° East 480 552 41,000  Level Guam Center
09:44PM 13.8000 145.7000 69° East 470 541 41,000  Level Guam Center
09:45PM 13.8500 145.8333 76° East 470 541 41,000  Level Guam Center
09:46PM 13.8833 145.9667 66° East 470 541 41,000  Level Guam Center
09:47PM 13.9333 146.0833 69° East 480 552 41,000  Level Guam Center
09:48PM 13.9833 146.2167 76° East 480 552 41,000  Level Guam Center
09:49PM 14.0167 146.3500 360° North 472 543 41,000  Level Oakland Oceanic (ODAPS)
09:49PM 14.0167 146.3500 66° East 470 541 41,000  Level Guam Center
09:50PM 14.0667 146.4667 69° East 470 541 41,000  Level Guam Center
09:51PM 14.1167 146.6000 74° East 480 552 41,000  Level Guam Center
09:52PM 14.1500 146.7167 68° East 480 552 41,000  Level Guam Center
09:53PM 14.1833 146.8000 71° East 473 544 41,000  Level Oakland Oceanic (ODAPS)
09:53PM 14.2000 146.8500 69° East 470 541 41,000  Level Guam Center
09:54PM 14.2500 146.9833 69° East 470 541 41,000  Level Guam Center
09:55PM 14.3000 147.1167 74° East 470 541 41,000  Level Guam Center
09:56PM 14.3333 147.2333 55° Northeast 470 541 41,000  Level Guam Center
09:56PM 14.3667 147.2833 78° East 466 536 41,000  Level Oakland Oceanic (ODAPS)
09:57PM 14.3833 147.3667 55° Northeast 470 541 41,000  Level Guam Center
09:58PM 14.4500 147.4667 54° Northeast 460 529 41,000  Level Guam Center
09:59PM 14.5333 147.5833 44° Northeast 460 529 41,000  Level Guam Center
09:59PM 14.5500 147.6000 58° Northeast 469 540 41,000  Level Oakland Oceanic (ODAPS)
10:00PM 14.6000 147.6833 63° Northeast 470 541 41,000  Level Guam Center
10:01PM 14.6667 147.8167 55° Northeast 470 541 41,000  Level Guam Center
10:02PM 14.7333 147.9167 59° Northeast 470 541 41,000  Level Guam Center
10:03PM 14.8000 148.0333 59° Northeast 470 541 41,000  Level Guam Center
10:04PM 14.8667 148.1500 59° Northeast 470 541 41,000  Level Guam Center
10:05PM 14.9333 148.2667 59° Northeast 470 541 41,000  Level Guam Center
10:06PM 15.0000 148.3833 61° Northeast 460 529 41,000  Level Guam Center
10:08PM 15.1167 148.6000 58° Northeast 460 529 41,000  Level Guam Center
10:09PM 15.1667 148.6833 63° Northeast 455 524 41,000  Level Oakland Oceanic (ODAPS)
10:09PM 15.1833 148.7167 63° Northeast 460 529 41,000  Level Guam Center
10:09PM 15.2167 148.7833 60° Northeast 469 540 41,000  Level Oakland Oceanic (ODAPS)
10:35PM 16.8667 151.7833 61° Northeast 469 540 41,000  Level Oakland Oceanic (ODAPS)
11:02PM 18.5333 154.9667 62° Northeast 469 540 41,000  Level Oakland Oceanic (ODAPS)
11:15PM 19.3167 156.5167 62° Northeast 473 544 41,000  Level Oakland Oceanic (ODAPS)
11:29PM 20.1667 158.2333 63° Northeast 471 542 41,000  Level Oakland Oceanic (ODAPS)
11:43PM 21.0000 160.0000 47° Northeast 473 544 41,000  Level Oakland Oceanic (ODAPS)
11:55PM 22.1167 161.2833 47° Northeast 478 550 41,000  Level Oakland Oceanic (ODAPS)
12:23AM 24.5000 164.1000 48° Northeast 480 552 41,000  Level Oakland Oceanic (ODAPS)
12:49AM 26.8500 167.1000 50° Northeast 491 565 41,000  Level Oakland Oceanic (ODAPS)
01:14AM 29.0667 170.1500 62° Northeast 538 619 41,000  Level Oakland Oceanic (ODAPS)
01:15AM 29.1833 170.4000 63° Northeast 516 594 41,000  Level Oakland Oceanic (ODAPS)
01:42AM 30.8833 174.3667 65° Northeast 513 590 41,000  Level Oakland Oceanic (ODAPS)
02:09AM 32.4500 178.4667 66° East 521 600 41,000  Level Oakland Oceanic (ODAPS)
02:18AM 33.0000 -180.0000 67° East 518 596 41,000  Level Oakland Oceanic (ODAPS)
02:35AM 33.9167 -177.2833 69° East 517 595 41,000  Level Oakland Oceanic (ODAPS)
03:02AM 35.2333 -172.9167 71° East 529 609 41,000  Level Oakland Oceanic (ODAPS)
03:19AM 36.0000 -170.0000 80° East 525 604 41,000  Level Oakland Oceanic (ODAPS)
03:29AM 36.2500 -168.2000 81° East 525 604 41,000  Level Oakland Oceanic (ODAPS)
03:55AM 36.7667 -163.2000 84° East 552 635 41,000  Level Oakland Oceanic (ODAPS)
04:12AM 37.0000 -160.0000 94° East 538 619 41,000  Level Oakland Oceanic (ODAPS)
04:22AM 36.8833 -158.1500 95° East 536 617 41,000  Level Oakland Oceanic (ODAPS)
04:49AM 36.4167 -153.2333 98° East 534 615 41,000  Level Oakland Oceanic (ODAPS)
05:07AM 36.0000 -150.0000 103° East 520 598 41,000  Level Oakland Oceanic (ODAPS)
05:15AM 35.7167 -148.5500 104° East 508 585 41,000  Level Oakland Oceanic (ODAPS)
05:35AM 35.0000 -145.2500 48° Northeast 478 550 41,000  Level Oakland Oceanic (ODAPS)
05:41AM 35.5167 -144.5500 54° Northeast 478 550 41,000  Level Oakland Oceanic (ODAPS)
05:42AM 35.5667 -144.4667 48° Northeast 473 544 41,000  Level Oakland Oceanic (ODAPS)
06:33AM 39.8000 -138.1167 52° Northeast 469 540 41,000  Level Oakland Oceanic (ODAPS)
07:30AM 44.1000 -129.9833 58° Northeast 489 563 41,000  Level Oakland Oceanic (ODAPS)
07:44AM 45.2456 -127.3522 59° Northeast 479 551 41,000  Level Seattle Center
07:45AM 45.3147 -127.1869 59° Northeast 484 557 41,000  Level Seattle Center
07:46AM 45.3847 -127.0197 59° Northeast 489 563 41,000  Level Seattle Center
07:47AM 45.4561 -126.8528 59° Northeast 492 566 41,000  Level Seattle Center
07:48AM 45.5250 -126.6889 49° Northeast 492 566 41,000  Level Seattle Center
07:49AM 45.6178 -126.5386 52° Northeast 515 593 41,000  Level Seattle Center
07:50AM 45.6989 -126.3919 50° Northeast 484 557 41,000  Level Seattle Center
07:51AM 45.7836 -126.2444 51° Northeast 485 558 41,000  Level Seattle Center
07:52AM 45.8694 -126.0942 52° Northeast 486 559 41,000  Level Seattle Center
07:53AM 45.9536 -125.9394 63° Northeast 490 564 41,000  Level Seattle Center
07:54AM 46.0167 -125.7625 63° Northeast 496 571 41,000  Level Seattle Center
07:55AM 46.0797 -125.5839 63° Northeast 500 575 41,000  Level Seattle Center
07:56AM 46.1422 -125.4042 63° Northeast 502 578 41,000  Level Seattle Center
07:57AM 46.2056 -125.2233 63° Northeast 504 580 41,000 -240 Level Seattle Center
07:58AM 46.2678 -125.0436 64° Northeast 503 579 40,600 -720 Descending Seattle Center
07:59AM 46.3236 -124.8753 63° Northeast 473 544 39,600 -1,200 Descending Seattle Center
08:00AM 46.3786 -124.7156 63° Northeast 446 513 38,200 -1,620 Descending Seattle Center
08:01AM 46.4356 -124.5497 59° Northeast 425 489 36,400 -1,560 Descending Seattle Center
08:02AM 46.4914 -124.4161 50° Northeast 392 451 35,100 -2,340 Descending Seattle Center
08:03AM 46.5614 -124.2967 50° Northeast 395 455 31,700 -2,580 Descending Seattle Center
08:04AM 46.6319 -124.1750 49° Northeast 395 455 30,000 -1,800 Descending Seattle Center
08:05AM 46.7003 -124.0597 49° Northeast 383 441 28,200 -1,860 Descending Seattle Center
08:06AM 46.7650 -123.9497 49° Northeast 367 422 26,300 -1,980 Descending Seattle Center
08:07AM 46.8253 -123.8472 50° Northeast 361 415 24,300 -2,340 Descending Seattle Center
08:08AM 46.8844 -123.7442 51° Northeast 363 418 22,100 -2,280 Descending Seattle Center
08:08AM 46.8894 -123.7350 47° Northeast 361 415 22,000 -1,500 Descending Seattle Center
08:08AM 46.8956 -123.7256 49° Northeast 363 418 21,800 -2,040 Descending Seattle Center
08:09AM 46.9528 -123.6275 52° Northeast 358 412 20,000 -2,100 Descending Seattle Center
08:09AM 46.9639 -123.6064 50° Northeast 353 406 19,700 -2,280 Descending Seattle Center
08:10AM 47.0231 -123.5044 50° Northeast 341 392 17,700 -1,620 Descending Seattle Center
08:11AM 47.0719 -123.4189 50° Northeast 335 386 16,500 -1,620 Descending Seattle Center
08:12AM 47.0833 -123.3986 50° Northeast 331 381 16,100 -1,800 Descending Seattle Center
08:12AM 47.1300 -123.3178 49° Northeast 329 379 14,700 -2,040 Descending Seattle Center
08:13AM 47.1486 -123.2864 51° Northeast 324 373 13,900 -2,220 Descending Seattle Center
08:13AM 47.1858 -123.2189 50° Northeast 321 369 12,500 -1,980 Descending Seattle Center
08:14AM 47.2056 -123.1847 50° Northeast 320 368 11,900 -2,220 Descending Seattle Center
08:14AM 47.2522 -123.1022 49° Northeast 315 362 10,300 -1,800 Descending Seattle Center
08:15AM 47.2614 -123.0869 51° Northeast 313 360 10,100 -300 Descending Seattle Center
08:15AM 47.3067 -123.0039 45° Northeast 313 360 10,000 -120 Descending Seattle Center
08:16AM 47.3167 -122.9889 50° Northeast 312 359 10,000 -420 Level Seattle Center
08:16AM 47.3586 -122.9153 48° Northeast 292 336 9,600 -840 Descending Seattle Center
08:17AM 47.3742 -122.8897 52° Northeast 276 318 9,100 -1,500 Descending Seattle Center
08:18AM 47.4211 -122.8022 50° Northeast 276 318 7,700 -1,320 Descending Seattle Center
08:18AM 47.4550 -122.7428 50° Northeast 274 315 6,900 -1,320 Descending Seattle Center
08:19AM 47.4719 -122.7125 51° Northeast 273 314 6,400 -1,320 Descending Seattle Center
08:19AM 47.5017 -122.6586 51° Northeast 270 311 5,600 -1,140 Descending Seattle Center
08:20AM 47.5178 -122.6289 41° Northeast 266 306 5,300 -720 Descending Seattle Center
08:20AM 47.5536 -122.5831 26° Northeast 249 287 4,900 -540 Descending Seattle Center
08:21AM 47.5717 -122.5697 27° Northeast 234 269 4,800 -540 Descending Seattle Center
08:21AM 47.6092 -122.5411 30° Northeast 222 255 4,400 -600 Descending Seattle Center
08:22AM 47.6256 -122.5272 32° Northeast 214 246 4,200 -600 Descending Seattle Center
08:23AM 47.6572 -122.4978 48° Northeast 209 241 3,800 -540 Descending Seattle Center
08:23AM 47.6672 -122.4814 88° East 184 212 3,700 -540 Descending Seattle Center
08:24AM 47.6681 -122.4339 120° Southeast 179 206 3,300 -780 Descending Seattle Center
08:24AM 47.6631 -122.4211 146° Southeast 174 200 3,000 -1,140 Descending Seattle Center
08:25AM 47.6314 -122.3897 156° South 172 198 2,200 -1,020 Descending Seattle Center
08:25AM 47.6228 -122.3842 148° Southeast 166 191 2,000 -840 Descending Seattle Center
08:26AM 47.5975 -122.3606 144° Southeast 136 157 1,400 -840 Descending Seattle Center
08:26AM 47.5903 -122.3528 153° Southeast 135 155 1,200 -720 Descending Seattle Center
08:27AM 47.5656 -122.3339 154° Southeast 132 152 700 -720 Descending Seattle Center
08:27AM 47.5603 -122.3300 154° Southeast 131 151 500 -900 Descending Seattle Center